Time;durP1;ratioP1;P1;durP2;ratioP2;P2;SDS_P1;SDS_P2;PMS_P1;PMS_P2;Temp;Humidity;BMP_temperature;BMP_pressure;BME280_temperature;BME280_humidity;BME280_pressure;Samples;Min_cycle;Max_cycle;Signal;HPM_P1;HPM_P2
2024/01/21 00:01:40;;;;;;;134.15;127.35;;;;;;;;;;5067669;28;21196;-63
2024/01/21 00:04:08;;;;;;;126.13;119.63;;;;;;;;;;5062316;28;20429;-64
2024/01/21 00:06:36;;;;;;;115.38;109.38;;;;;;;;;;5063552;28;20427;-64
2024/01/21 00:09:03;;;;;;;132.23;125.43;;;;;;;;;;5066604;28;20511;-64
2024/01/21 00:11:30;;;;;;;123.93;117.55;;;;;;;;;;5074589;28;20814;-64
2024/01/21 00:13:57;;;;;;;111.93;106.10;;;;;;;;;;5067009;28;20952;-64
2024/01/21 00:16:25;;;;;;;130.80;123.97;;;;;;;;;;5068369;28;20432;-63
2024/01/21 00:18:52;;;;;;;123.93;117.63;;;;;;;;;;5063503;28;20456;-63
2024/01/21 00:21:20;;;;;;;126.47;119.85;;;;;;;;;;5066230;28;20537;-64
2024/01/21 00:23:47;;;;;;;126.68;120.07;;;;;;;;;;5065825;28;20426;-64
2024/01/21 00:26:14;;;;;;;128.65;121.93;;;;;;;;;;5074049;28;20530;-63
2024/01/21 00:28:43;;;;;;;134.23;127.25;;;;;;;;;;5062742;28;20427;-63
2024/01/21 00:31:13;;;;;;;118.43;112.18;;;;;;;;;;5065856;28;20553;-63
2024/01/21 00:33:40;;;;;;;129.60;122.53;;;;;;;;;;5068068;28;20434;-63
2024/01/21 00:36:08;;;;;;;130.88;124.07;;;;;;;;;;5072974;28;20435;-63
2024/01/21 00:38:41;;;;;;;116.45;110.35;;;;;;;;;;5062766;28;20617;-63
2024/01/21 00:41:12;;;;;;;133.65;126.20;;;;;;;;;;5064008;28;20431;-63
2024/01/21 00:43:43;;;;;;;128.88;122.32;;;;;;;;;;5066072;28;20423;-63
2024/01/21 00:46:10;;;;;;;128.50;121.47;;;;;;;;;;5068964;28;20470;-63
2024/01/21 00:48:38;;;;;;;124.93;118.03;;;;;;;;;;5070559;28;20524;-64
2024/01/21 00:51:07;;;;;;;136.43;128.25;;;;;;;;;;5072779;28;20443;-64
2024/01/21 00:53:34;;;;;;;136.15;129.20;;;;;;;;;;5065685;28;20911;-63
2024/01/21 00:56:01;;;;;;;138.82;131.50;;;;;;;;;;5062244;28;20520;-65
2024/01/21 00:58:29;;;;;;;122.73;116.33;;;;;;;;;;5066475;28;20990;-64
2024/01/21 01:00:56;;;;;;;144.68;137.07;;;;;;;;;;5071619;28;20554;-64
2024/01/21 01:03:26;;;;;;;132.80;125.95;;;;;;;;;;5064150;28;20435;-64
2024/01/21 01:05:53;;;;;;;136.32;129.23;;;;;;;;;;5063074;28;20503;-64
2024/01/21 01:08:20;;;;;;;136.25;129.15;;;;;;;;;;5065234;28;20438;-64
2024/01/21 01:10:48;;;;;;;127.45;120.88;;;;;;;;;;5065862;28;20423;-64
2024/01/21 01:13:15;;;;;;;133.23;126.28;;;;;;;;;;5064311;28;20511;-64
2024/01/21 01:15:42;;;;;;;133.65;126.78;;;;;;;;;;5063345;28;20462;-64
2024/01/21 01:18:09;;;;;;;128.80;122.15;;;;;;;;;;5064405;28;20423;-64
2024/01/21 01:20:36;;;;;;;129.53;122.87;;;;;;;;;;5066998;28;20496;-64
2024/01/21 01:23:05;;;;;;;128.10;121.53;;;;;;;;;;5065936;28;20427;-63
2024/01/21 01:25:32;;;;;;;128.15;121.50;;;;;;;;;;5074526;28;20455;-63
2024/01/21 01:27:59;;;;;;;125.65;119.15;;;;;;;;;;5062015;28;20427;-64
2024/01/21 01:30:26;;;;;;;129.50;122.80;;;;;;;;;;5063755;28;20428;-64
2024/01/21 01:32:54;;;;;;;126.35;119.80;;;;;;;;;;5061268;28;20903;-63
2024/01/21 01:35:21;;;;;;;117.30;111.25;;;;;;;;;;5066196;28;20427;-63
2024/01/21 01:37:50;;;;;;;119.90;113.68;;;;;;;;;;5062848;28;20436;-63
2024/01/21 01:40:20;;;;;;;117.88;111.72;;;;;;;;;;5067273;28;20427;-63
2024/01/21 01:42:57;;;;;;;111.97;106.10;;;;;;;;;;5074220;28;20510;-64
2024/01/21 01:45:25;;;;;;;108.32;102.65;;;;;;;;;;5068073;28;20935;-63
2024/01/21 01:47:52;;;;;;;84.03;79.53;;;;;;;;;;5078818;28;20435;-63
2024/01/21 01:50:20;;;;;;;80.00;75.72;;;;;;;;;;5059021;28;20914;-63
2024/01/21 01:52:47;;;;;;;86.23;81.57;;;;;;;;;;5066301;28;20865;-63
2024/01/21 01:55:15;;;;;;;114.88;108.60;;;;;;;;;;5057491;28;20439;-63
2024/01/21 01:57:43;;;;;;;97.53;92.40;;;;;;;;;;5066538;28;20952;-63
2024/01/21 02:00:10;;;;;;;81.68;77.30;;;;;;;;;;5066860;28;20433;-63
2024/01/21 02:02:38;;;;;;;87.20;82.53;;;;;;;;;;5070128;28;20425;-63
2024/01/21 02:05:05;;;;;;;102.40;96.85;;;;;;;;;;5057518;28;20439;-63
2024/01/21 02:07:32;;;;;;;68.73;64.93;;;;;;;;;;5065852;28;20439;-63
2024/01/21 02:10:01;;;;;;;62.38;58.92;;;;;;;;;;5071985;28;20898;-63
2024/01/21 02:12:29;;;;;;;73.50;69.53;;;;;;;;;;5079959;28;20432;-63
2024/01/21 02:14:56;;;;;;;99.50;94.10;;;;;;;;;;5068248;28;20933;-63
2024/01/21 02:17:23;;;;;;;68.90;65.15;;;;;;;;;;5077673;28;20512;-63
2024/01/21 02:19:50;;;;;;;82.75;78.30;;;;;;;;;;5069532;28;20431;-63
2024/01/21 02:22:18;;;;;;;102.43;96.97;;;;;;;;;;5067934;28;20435;-63
2024/01/21 02:24:45;;;;;;;92.27;87.47;;;;;;;;;;5071186;28;20427;-63
2024/01/21 02:27:12;;;;;;;94.78;89.75;;;;;;;;;;5069874;28;20439;-63
2024/01/21 02:29:42;;;;;;;99.88;94.40;;;;;;;;;;5064417;28;20524;-63
2024/01/21 02:32:09;;;;;;;104.93;99.38;;;;;;;;;;5075606;28;20436;-63
2024/01/21 02:34:36;;;;;;;67.50;63.80;;;;;;;;;;5066320;28;20428;-63
2024/01/21 02:37:04;;;;;;;58.65;55.40;;;;;;;;;;5066731;28;20869;-63
2024/01/21 02:39:31;;;;;;;87.80;83.18;;;;;;;;;;5079033;28;20454;-63
2024/01/21 02:41:58;;;;;;;79.93;75.63;;;;;;;;;;5075875;28;20431;-63
2024/01/21 02:44:25;;;;;;;96.63;91.35;;;;;;;;;;5066551;28;20931;-63
2024/01/21 02:46:52;;;;;;;103.75;98.15;;;;;;;;;;5074424;28;20506;-63
2024/01/21 02:49:23;;;;;;;111.78;105.85;;;;;;;;;;5068680;28;20427;-63
2024/01/21 02:51:51;;;;;;;113.93;107.43;;;;;;;;;;5070062;28;20439;-63
2024/01/21 02:54:18;;;;;;;122.05;115.68;;;;;;;;;;5059083;28;20996;-63
2024/01/21 02:56:45;;;;;;;112.72;106.90;;;;;;;;;;5068473;28;20428;-63
2024/01/21 02:59:12;;;;;;;124.93;118.40;;;;;;;;;;5068709;28;20511;-63
2024/01/21 03:01:40;;;;;;;124.78;118.32;;;;;;;;;;5075467;28;20427;-63
2024/01/21 03:04:11;;;;;;;102.45;96.57;;;;;;;;;;5071884;28;20459;-63
2024/01/21 03:06:38;;;;;;;107.90;102.10;;;;;;;;;;5079626;28;20443;-63
2024/01/21 03:09:08;;;;;;;111.38;105.38;;;;;;;;;;5076365;28;20483;-63
2024/01/21 03:11:38;;;;;;;122.70;116.17;;;;;;;;;;5068020;28;20471;-63
2024/01/21 03:14:07;;;;;;;113.85;107.88;;;;;;;;;;5067396;28;20992;-63
2024/01/21 03:16:34;;;;;;;119.65;113.07;;;;;;;;;;5069064;28;20424;-63
2024/01/21 03:19:02;;;;;;;115.97;109.78;;;;;;;;;;5067685;28;20477;-63
2024/01/21 03:21:29;;;;;;;123.95;117.38;;;;;;;;;;5078147;28;20475;-63
2024/01/21 03:23:56;;;;;;;109.07;103.30;;;;;;;;;;5069285;28;20428;-63
2024/01/21 03:26:23;;;;;;;121.03;114.68;;;;;;;;;;5070778;28;20435;-63
2024/01/21 03:28:51;;;;;;;114.47;108.38;;;;;;;;;;5076278;28;20423;-63
2024/01/21 03:31:19;;;;;;;115.67;109.67;;;;;;;;;;5069931;28;20427;-63
2024/01/21 03:33:49;;;;;;;118.65;112.50;;;;;;;;;;5074246;28;20427;-63
2024/01/21 03:36:16;;;;;;;125.97;119.35;;;;;;;;;;5072967;28;20432;-63
2024/01/21 03:38:45;;;;;;;122.18;115.70;;;;;;;;;;5068767;28;20431;-63
2024/01/21 03:41:12;;;;;;;121.32;115.05;;;;;;;;;;5067847;28;20435;-63
2024/01/21 03:43:39;;;;;;;123.93;117.50;;;;;;;;;;5069644;28;20427;-63
2024/01/21 03:46:10;;;;;;;114.75;108.78;;;;;;;;;;5071520;28;20450;-63
2024/01/21 03:48:40;;;;;;;109.50;103.72;;;;;;;;;;5075907;28;20435;-63
2024/01/21 03:51:10;;;;;;;116.77;110.70;;;;;;;;;;5067605;28;20522;-63
2024/01/21 03:53:39;;;;;;;127.20;120.57;;;;;;;;;;5066812;28;20481;-63
2024/01/21 03:56:07;;;;;;;83.70;79.28;;;;;;;;;;5073246;28;20433;-63
2024/01/21 03:58:37;;;;;;;102.72;97.28;;;;;;;;;;5070795;28;20479;-63
2024/01/21 04:01:04;;;;;;;124.72;118.28;;;;;;;;;;5071627;28;20972;-63
2024/01/21 04:03:33;;;;;;;130.45;123.68;;;;;;;;;;5057727;28;20431;-63
2024/01/21 04:06:00;;;;;;;135.48;128.43;;;;;;;;;;5072881;28;20429;-63
2024/01/21 04:08:27;;;;;;;135.43;128.45;;;;;;;;;;5060441;28;20530;-63
2024/01/21 04:10:55;;;;;;;136.75;129.70;;;;;;;;;;5068004;28;20435;-63
2024/01/21 04:13:22;;;;;;;135.20;128.05;;;;;;;;;;5064237;28;20436;-63
2024/01/21 04:15:49;;;;;;;127.72;121.18;;;;;;;;;;5065286;28;20841;-63
2024/01/21 04:18:17;;;;;;;130.05;123.20;;;;;;;;;;5059881;28;20507;-63
2024/01/21 04:20:44;;;;;;;126.95;120.22;;;;;;;;;;5077603;28;20451;-63
2024/01/21 04:23:11;;;;;;;126.10;119.57;;;;;;;;;;5066475;28;20462;-63
2024/01/21 04:25:41;;;;;;;121.35;114.88;;;;;;;;;;5059189;28;20423;-63
2024/01/21 04:28:11;;;;;;;120.20;113.93;;;;;;;;;;5068757;28;20433;-63
2024/01/21 04:30:39;;;;;;;119.18;112.95;;;;;;;;;;5073088;28;20502;-63
2024/01/21 04:33:06;;;;;;;111.13;105.38;;;;;;;;;;5066470;28;20451;-63
2024/01/21 04:35:33;;;;;;;78.18;74.00;;;;;;;;;;5073651;28;20484;-63
2024/01/21 04:38:01;;;;;;;87.07;82.47;;;;;;;;;;5066714;28;20501;-63
2024/01/21 04:40:28;;;;;;;94.93;89.93;;;;;;;;;;5066981;28;20501;-63
2024/01/21 04:42:55;;;;;;;69.13;65.25;;;;;;;;;;5065343;28;20427;-63
2024/01/21 04:45:22;;;;;;;84.90;80.32;;;;;;;;;;5064077;28;20462;-63
2024/01/21 04:47:50;;;;;;;85.25;80.03;;;;;;;;;;5069785;28;20439;-63
2024/01/21 04:50:17;;;;;;;107.68;101.10;;;;;;;;;;5066842;28;20476;-63
2024/01/21 04:52:44;;;;;;;110.57;104.78;;;;;;;;;;5076077;28;20521;-64
2024/01/21 04:55:11;;;;;;;114.78;108.82;;;;;;;;;;5067203;28;20833;-63
2024/01/21 04:57:39;;;;;;;75.13;70.82;;;;;;;;;;5072773;28;20436;-63
2024/01/21 05:00:07;;;;;;;96.22;90.95;;;;;;;;;;5067503;28;20430;-63
2024/01/21 05:02:34;;;;;;;112.05;106.10;;;;;;;;;;5076451;28;21108;-63
2024/01/21 05:05:04;;;;;;;114.90;108.95;;;;;;;;;;5073741;28;20505;-63
2024/01/21 05:07:32;;;;;;;119.70;113.40;;;;;;;;;;5069197;28;20438;-64
2024/01/21 05:10:03;;;;;;;91.33;86.50;;;;;;;;;;5069906;28;20496;-63
2024/01/21 05:12:30;;;;;;;110.00;104.20;;;;;;;;;;5069084;28;20508;-63
2024/01/21 05:14:59;;;;;;;110.88;105.10;;;;;;;;;;5061649;28;20464;-63
2024/01/21 05:17:29;;;;;;;107.75;102.10;;;;;;;;;;5061695;28;20484;-63
2024/01/21 05:19:58;;;;;;;115.35;109.18;;;;;;;;;;5058807;28;20575;-63
2024/01/21 05:22:25;;;;;;;120.60;113.90;;;;;;;;;;5068042;28;20861;-64
2024/01/21 05:24:52;;;;;;;119.50;113.20;;;;;;;;;;5070961;28;20894;-63
2024/01/21 05:27:19;;;;;;;128.77;121.53;;;;;;;;;;5065325;28;20431;-63
2024/01/21 05:29:47;;;;;;;130.88;123.63;;;;;;;;;;5066974;28;20838;-63
2024/01/21 05:32:14;;;;;;;134.02;126.72;;;;;;;;;;5068606;28;20515;-63
2024/01/21 05:34:41;;;;;;;131.18;123.57;;;;;;;;;;5066264;28;20442;-63
2024/01/21 05:37:08;;;;;;;124.22;117.57;;;;;;;;;;5053707;28;20439;-63
2024/01/21 05:39:36;;;;;;;130.00;122.43;;;;;;;;;;5063686;28;20487;-63
2024/01/21 05:42:04;;;;;;;121.82;114.90;;;;;;;;;;5060948;28;20773;-63
2024/01/21 05:44:31;;;;;;;124.43;117.45;;;;;;;;;;5074193;28;20421;-63
2024/01/21 05:46:59;;;;;;;121.38;114.82;;;;;;;;;;5069266;28;20627;-63
2024/01/21 05:49:26;;;;;;;61.95;58.30;;;;;;;;;;5067865;28;20451;-63
2024/01/21 05:51:56;;;;;;;72.40;67.68;;;;;;;;;;5074280;28;20521;-64
2024/01/21 05:54:25;;;;;;;98.35;92.30;;;;;;;;;;5063008;28;20439;-63
2024/01/21 05:56:52;;;;;;;111.57;105.70;;;;;;;;;;5061163;28;20438;-63
2024/01/21 05:59:20;;;;;;;109.15;102.80;;;;;;;;;;5059476;28;20439;-63
2024/01/21 06:01:49;;;;;;;112.88;106.53;;;;;;;;;;5062866;28;20522;-63
2024/01/21 06:04:17;;;;;;;115.43;109.32;;;;;;;;;;5063370;28;20450;-63
2024/01/21 06:06:44;;;;;;;123.32;116.65;;;;;;;;;;5070160;28;20431;-63
2024/01/21 06:09:12;;;;;;;88.45;83.57;;;;;;;;;;5057432;28;20463;-63
2024/01/21 06:11:39;;;;;;;79.18;74.88;;;;;;;;;;5065260;28;20955;-63
2024/01/21 06:14:07;;;;;;;90.53;85.63;;;;;;;;;;5069563;28;20439;-63
2024/01/21 06:16:37;;;;;;;102.63;96.55;;;;;;;;;;5055846;28;20443;-63
2024/01/21 06:19:05;;;;;;;106.28;100.25;;;;;;;;;;5059193;28;20489;-63
2024/01/21 06:21:42;;;;;;;95.60;90.50;;;;;;;;;;5070080;28;20533;-63
2024/01/21 06:24:09;;;;;;;100.10;94.82;;;;;;;;;;5068472;28;20498;-63
2024/01/21 06:26:40;;;;;;;101.47;96.00;;;;;;;;;;5070048;28;20427;-63
2024/01/21 06:29:08;;;;;;;101.70;96.00;;;;;;;;;;5065923;28;20435;-63
2024/01/21 06:31:35;;;;;;;128.60;120.13;;;;;;;;;;5045218;28;20436;-63
2024/01/21 06:34:05;;;;;;;100.93;95.47;;;;;;;;;;5060574;28;20435;-63
2024/01/21 06:36:32;;;;;;;107.15;100.53;;;;;;;;;;5066426;28;20467;-63
2024/01/21 06:38:59;;;;;;;108.40;102.65;;;;;;;;;;5065864;28;20427;-63
2024/01/21 06:41:26;;;;;;;114.88;108.18;;;;;;;;;;5074655;28;20518;-63
2024/01/21 06:43:54;;;;;;;104.78;98.72;;;;;;;;;;5062386;28;20435;-63
2024/01/21 06:46:21;;;;;;;103.57;98.05;;;;;;;;;;5064399;28;20423;-63
2024/01/21 06:48:48;;;;;;;120.18;113.82;;;;;;;;;;5076001;28;20432;-63
2024/01/21 06:51:31;;;;;;;131.70;124.45;;;;;;;;;;5073555;28;20438;-63
2024/01/21 06:53:59;;;;;;;119.65;113.32;;;;;;;;;;5064256;28;20427;-63
2024/01/21 06:56:27;;;;;;;133.65;126.38;;;;;;;;;;5063515;28;20527;-63
2024/01/21 06:58:54;;;;;;;130.60;123.83;;;;;;;;;;5060223;28;20436;-63
2024/01/21 07:01:21;;;;;;;130.75;123.72;;;;;;;;;;5063819;28;20427;-62
2024/01/21 07:03:49;;;;;;;123.13;116.43;;;;;;;;;;5056848;28;20435;-62
2024/01/21 07:06:16;;;;;;;139.27;129.80;;;;;;;;;;5064648;28;20434;-62
2024/01/21 07:08:43;;;;;;;120.75;113.75;;;;;;;;;;5053415;28;20440;-62
2024/01/21 07:11:11;;;;;;;122.80;116.25;;;;;;;;;;5064509;28;20506;-62
2024/01/21 07:13:39;;;;;;;120.25;113.70;;;;;;;;;;5064269;28;20427;-62
2024/01/21 07:16:06;;;;;;;118.95;111.95;;;;;;;;;;5061975;28;20427;-62
2024/01/21 07:18:33;;;;;;;111.18;105.35;;;;;;;;;;5064202;28;20501;-62
2024/01/21 07:21:01;;;;;;;119.65;112.53;;;;;;;;;;5078789;28;20437;-62
2024/01/21 07:23:29;;;;;;;115.95;109.90;;;;;;;;;;5067949;28;21186;-62
2024/01/21 07:25:57;;;;;;;117.25;111.10;;;;;;;;;;5064391;28;20469;-62
2024/01/21 07:28:24;;;;;;;120.18;113.97;;;;;;;;;;5061839;28;20484;-62
2024/01/21 07:30:51;;;;;;;113.43;107.50;;;;;;;;;;5057148;28;20463;-62
2024/01/21 07:33:22;;;;;;;112.00;106.15;;;;;;;;;;5064359;28;20427;-62
2024/01/21 07:35:50;;;;;;;113.97;107.85;;;;;;;;;;5064135;28;20440;-62
2024/01/21 07:38:17;;;;;;;118.68;112.03;;;;;;;;;;5065903;28;20431;-62
2024/01/21 07:40:47;;;;;;;119.53;113.25;;;;;;;;;;5061592;28;20427;-62
2024/01/21 07:43:14;;;;;;;112.88;107.00;;;;;;;;;;5068232;28;20424;-62
2024/01/21 07:45:41;;;;;;;114.97;108.78;;;;;;;;;;5061234;28;20919;-62
2024/01/21 07:48:08;;;;;;;123.95;117.15;;;;;;;;;;5062532;28;20513;-62
2024/01/21 07:50:36;;;;;;;122.63;116.03;;;;;;;;;;5065369;28;20428;-62
2024/01/21 07:53:05;;;;;;;119.43;113.25;;;;;;;;;;5082232;28;20505;-62
2024/01/21 07:55:34;;;;;;;125.85;119.07;;;;;;;;;;5066039;28;20432;-62
2024/01/21 07:58:01;;;;;;;123.28;116.47;;;;;;;;;;5057196;28;20797;-62
2024/01/21 08:00:32;;;;;;;120.30;113.00;;;;;;;;;;5060651;28;22043;-62
2024/01/21 08:03:04;;;;;;;123.15;115.72;;;;;;;;;;5068666;28;20439;-62
2024/01/21 08:05:33;;;;;;;115.65;106.70;;;;;;;;;;5076724;28;20966;-62
2024/01/21 08:08:00;;;;;;;120.75;114.15;;;;;;;;;;5066505;28;20522;-62
2024/01/21 08:10:29;;;;;;;120.45;114.03;;;;;;;;;;5063294;28;21033;-62
2024/01/21 08:12:59;;;;;;;120.53;114.30;;;;;;;;;;5063315;28;20939;-62
2024/01/21 08:15:29;;;;;;;101.78;95.78;;;;;;;;;;5059673;28;21156;-62
2024/01/21 08:17:56;;;;;;;101.43;95.83;;;;;;;;;;5060835;28;20419;-62
2024/01/21 08:20:23;;;;;;;101.93;96.30;;;;;;;;;;5068251;28;20485;-62
2024/01/21 08:22:50;;;;;;;106.88;100.13;;;;;;;;;;5072602;28;20477;-62
2024/01/21 08:25:17;;;;;;;94.30;88.50;;;;;;;;;;5073054;28;20460;-61
2024/01/21 08:27:45;;;;;;;91.78;86.68;;;;;;;;;;5070002;28;20506;-61
2024/01/21 08:30:12;;;;;;;72.82;68.85;;;;;;;;;;5077755;28;20432;-62
2024/01/21 08:32:39;;;;;;;97.53;92.40;;;;;;;;;;5058505;28;20434;-61
2024/01/21 08:35:07;;;;;;;98.57;93.43;;;;;;;;;;5068884;28;20433;-62
2024/01/21 08:37:34;;;;;;;117.93;111.25;;;;;;;;;;5076993;28;20427;-62
2024/01/21 08:40:02;;;;;;;112.25;106.05;;;;;;;;;;5063205;28;20468;-62
2024/01/21 08:42:30;;;;;;;76.63;72.47;;;;;;;;;;5066010;28;20419;-62
2024/01/21 08:44:57;;;;;;;79.43;75.13;;;;;;;;;;5051069;28;20534;-62
2024/01/21 08:47:24;;;;;;;97.18;91.95;;;;;;;;;;5065312;28;20431;-62
2024/01/21 08:49:52;;;;;;;104.55;99.05;;;;;;;;;;5075180;28;20431;-62
2024/01/21 08:52:22;;;;;;;111.20;105.20;;;;;;;;;;5074543;28;20435;-62
2024/01/21 08:54:49;;;;;;;106.72;101.10;;;;;;;;;;5075008;28;20899;-62
2024/01/21 08:57:16;;;;;;;109.93;103.80;;;;;;;;;;5068883;28;20423;-62
2024/01/21 08:59:43;;;;;;;118.53;112.13;;;;;;;;;;5063068;28;20431;-62
2024/01/21 09:02:11;;;;;;;107.53;101.85;;;;;;;;;;5070543;28;20477;-62
2024/01/21 09:04:40;;;;;;;112.18;105.43;;;;;;;;;;5062145;28;20427;-63
2024/01/21 09:07:07;;;;;;;109.72;103.72;;;;;;;;;;5064816;28;20993;-62
2024/01/21 09:09:35;;;;;;;108.55;102.85;;;;;;;;;;5072628;28;20776;-62
2024/01/21 09:12:02;;;;;;;108.18;102.57;;;;;;;;;;5066701;28;20431;-62
2024/01/21 09:14:32;;;;;;;110.32;104.05;;;;;;;;;;5065103;28;20523;-62
2024/01/21 09:17:00;;;;;;;106.88;101.20;;;;;;;;;;5067551;28;20427;-62
2024/01/21 09:19:27;;;;;;;110.03;103.82;;;;;;;;;;5068187;28;20424;-62
2024/01/21 09:21:57;;;;;;;115.10;109.05;;;;;;;;;;5067454;28;20531;-62
2024/01/21 09:24:27;;;;;;;103.72;98.22;;;;;;;;;;5068100;28;20483;-62
2024/01/21 09:26:55;;;;;;;95.85;90.70;;;;;;;;;;5068997;28;20501;-62
2024/01/21 09:29:32;;;;;;;95.80;90.70;;;;;;;;;;5067667;28;20900;-62
2024/01/21 09:31:59;;;;;;;95.78;89.80;;;;;;;;;;5065433;28;20431;-62
2024/01/21 09:34:27;;;;;;;86.15;80.80;;;;;;;;;;5070796;28;20459;-62
2024/01/21 09:36:57;;;;;;;94.10;89.07;;;;;;;;;;5068671;28;20435;-62
2024/01/21 09:39:25;;;;;;;89.10;84.18;;;;;;;;;;5066339;28;20502;-62
2024/01/21 09:41:53;;;;;;;99.32;94.03;;;;;;;;;;5070833;28;20918;-62
2024/01/21 09:44:27;;;;;;;107.22;101.22;;;;;;;;;;5065906;28;20473;-62
2024/01/21 09:46:58;;;;;;;69.55;65.65;;;;;;;;;;5059932;28;21731;-62
2024/01/21 09:49:27;;;;;;;98.38;93.07;;;;;;;;;;5066928;28;20435;-62
2024/01/21 09:51:55;;;;;;;103.10;97.38;;;;;;;;;;5070656;28;20839;-62
2024/01/21 09:54:25;;;;;;;104.82;98.95;;;;;;;;;;5057084;28;20484;-62
2024/01/21 09:56:53;;;;;;;104.18;97.97;;;;;;;;;;5065769;28;20458;-62
2024/01/21 09:59:20;;;;;;;105.65;99.40;;;;;;;;;;5066067;28;20800;-62
2024/01/21 10:01:47;;;;;;;95.43;90.10;;;;;;;;;;5064321;28;20459;-62
2024/01/21 10:04:15;;;;;;;101.88;95.20;;;;;;;;;;5062913;28;20507;-62
2024/01/21 10:06:43;;;;;;;96.77;91.53;;;;;;;;;;5067883;28;20457;-62
2024/01/21 10:09:16;;;;;;;114.85;108.70;;;;;;;;;;5064799;28;20439;-62
2024/01/21 10:11:43;;;;;;;116.93;109.47;;;;;;;;;;5070332;28;20531;-62
2024/01/21 10:14:11;;;;;;;66.93;63.20;;;;;;;;;;5073986;28;20418;-62
2024/01/21 10:16:42;;;;;;;95.73;90.67;;;;;;;;;;5066332;28;20427;-62
2024/01/21 10:19:14;;;;;;;84.78;80.13;;;;;;;;;;5078407;28;20517;-62
2024/01/21 10:21:42;;;;;;;87.75;82.85;;;;;;;;;;5081004;28;20431;-62
2024/01/21 10:24:10;;;;;;;104.85;98.93;;;;;;;;;;5079671;28;20507;-62
2024/01/21 10:26:38;;;;;;;117.70;111.00;;;;;;;;;;5068523;28;21055;-62
2024/01/21 10:29:05;;;;;;;111.10;105.10;;;;;;;;;;5069531;28;20546;-62
2024/01/21 10:31:35;;;;;;;105.90;100.20;;;;;;;;;;5067698;28;20599;-62
2024/01/21 10:34:03;;;;;;;106.97;101.32;;;;;;;;;;5071977;28;20993;-62
2024/01/21 10:36:32;;;;;;;103.80;98.28;;;;;;;;;;5074713;28;20527;-62
2024/01/21 10:39:02;;;;;;;113.75;106.82;;;;;;;;;;5071351;28;20427;-62
2024/01/21 10:41:33;;;;;;;119.15;111.28;;;;;;;;;;5071360;28;20436;-62
2024/01/21 10:44:03;;;;;;;126.82;117.55;;;;;;;;;;5074260;28;20906;-62
2024/01/21 10:46:37;;;;;;;117.82;111.13;;;;;;;;;;5073132;28;20427;-62
2024/01/21 10:49:04;;;;;;;106.30;98.65;;;;;;;;;;5065546;28;20461;-62
2024/01/21 10:51:32;;;;;;;94.50;87.18;;;;;;;;;;5069392;28;20436;-62
2024/01/21 10:54:00;;;;;;;91.78;84.40;;;;;;;;;;5070116;28;20458;-62
2024/01/21 10:56:27;;;;;;;103.43;95.07;;;;;;;;;;5065949;28;20492;-61
2024/01/21 10:58:55;;;;;;;109.18;101.43;;;;;;;;;;5073937;28;20444;-61
2024/01/21 11:01:24;;;;;;;129.13;120.78;;;;;;;;;;5068421;28;22370;-62
2024/01/21 11:04:03;;;;;;;92.77;85.23;;;;;;;;;;5071147;28;20430;-62
2024/01/21 11:06:32;;;;;;;107.67;100.80;;;;;;;;;;5075723;28;20430;-61
2024/01/21 11:09:01;;;;;;;95.72;90.30;;;;;;;;;;5083904;28;20432;-62
2024/01/21 11:11:31;;;;;;;94.47;87.15;;;;;;;;;;5067807;28;20431;-62
2024/01/21 11:14:00;;;;;;;80.85;75.65;;;;;;;;;;5072196;28;20815;-62
2024/01/21 11:16:31;;;;;;;99.20;92.10;;;;;;;;;;5084581;28;20468;-61
2024/01/21 11:18:59;;;;;;;87.72;81.40;;;;;;;;;;5073699;28;20435;-61
2024/01/21 11:21:27;;;;;;;84.68;79.47;;;;;;;;;;5080785;28;20462;-62
2024/01/21 11:24:03;;;;;;;70.13;63.30;;;;;;;;;;5071333;28;20435;-62
2024/01/21 11:26:32;;;;;;;76.15;71.38;;;;;;;;;;5078942;28;20913;-62
2024/01/21 11:29:05;;;;;;;77.47;72.25;;;;;;;;;;5068730;28;20431;-62
2024/01/21 11:31:33;;;;;;;94.00;88.50;;;;;;;;;;5069603;28;21008;-61
2024/01/21 11:34:04;;;;;;;92.15;86.03;;;;;;;;;;5077883;28;20753;-62
2024/01/21 11:36:32;;;;;;;93.35;87.43;;;;;;;;;;5069921;28;20438;-62
2024/01/21 11:39:01;;;;;;;64.85;60.80;;;;;;;;;;5068170;28;20933;-62
2024/01/21 11:41:47;;;;;;;75.63;71.40;;;;;;;;;;5066897;28;20505;-63
2024/01/21 11:44:22;;;;;;;78.40;73.97;;;;;;;;;;5067818;28;20432;-62
2024/01/21 11:46:54;;;;;;;70.05;65.65;;;;;;;;;;5076804;28;20425;-63
2024/01/21 11:49:24;;;;;;;95.35;89.82;;;;;;;;;;5067325;28;20430;-62
2024/01/21 11:51:52;;;;;;;86.65;81.13;;;;;;;;;;5080007;28;20485;-63
2024/01/21 11:54:21;;;;;;;84.25;78.13;;;;;;;;;;5074490;28;20447;-63
2024/01/21 11:56:49;;;;;;;96.05;90.65;;;;;;;;;;5079570;28;20436;-63
2024/01/21 11:59:24;;;;;;;107.20;100.43;;;;;;;;;;5074534;28;20422;-63
2024/01/21 12:01:54;;;;;;;86.13;81.50;;;;;;;;;;5078451;28;20428;-63
2024/01/21 12:04:25;;;;;;;80.90;76.40;;;;;;;;;;5059824;28;21367;-63
2024/01/21 12:06:54;;;;;;;115.13;108.47;;;;;;;;;;5068678;28;20490;-63
2024/01/21 12:09:24;;;;;;;102.13;96.35;;;;;;;;;;5069575;28;20435;-63
2024/01/21 12:11:52;;;;;;;123.47;117.00;;;;;;;;;;5077566;28;20428;-63
2024/01/21 12:14:20;;;;;;;94.05;88.72;;;;;;;;;;5076493;28;20430;-63
2024/01/21 12:16:51;;;;;;;104.00;98.13;;;;;;;;;;5065059;28;20432;-63
2024/01/21 12:19:19;;;;;;;119.38;113.15;;;;;;;;;;5065894;28;20490;-63
2024/01/21 12:21:47;;;;;;;94.72;89.05;;;;;;;;;;5065950;28;20435;-63
2024/01/21 12:24:14;;;;;;;117.25;110.43;;;;;;;;;;5070540;28;20457;-63
2024/01/21 12:26:45;;;;;;;115.63;109.43;;;;;;;;;;5064829;28;20435;-63
2024/01/21 12:29:12;;;;;;;131.18;124.22;;;;;;;;;;5064931;28;20955;-63
2024/01/21 12:31:41;;;;;;;129.98;123.10;;;;;;;;;;5065331;28;20423;-63
2024/01/21 12:34:12;;;;;;;117.78;111.50;;;;;;;;;;5070445;28;20867;-63
2024/01/21 12:36:45;;;;;;;109.45;102.85;;;;;;;;;;5073273;28;20499;-63
2024/01/21 12:39:13;;;;;;;118.18;111.75;;;;;;;;;;5057542;28;20428;-63
2024/01/21 12:41:40;;;;;;;107.35;101.25;;;;;;;;;;5066719;28;20790;-63
2024/01/21 12:44:07;;;;;;;113.20;106.70;;;;;;;;;;5066785;28;20501;-63
2024/01/21 12:46:37;;;;;;;119.28;112.82;;;;;;;;;;5067116;28;21167;-64
2024/01/21 12:49:04;;;;;;;118.47;112.10;;;;;;;;;;5066935;28;20427;-63
2024/01/21 12:51:32;;;;;;;117.80;111.45;;;;;;;;;;5044842;28;21124;-63
2024/01/21 12:53:59;;;;;;;124.80;117.95;;;;;;;;;;5054081;28;20997;-63
2024/01/21 12:56:27;;;;;;;112.50;106.38;;;;;;;;;;5062754;28;20841;-63
2024/01/21 12:58:54;;;;;;;106.60;100.82;;;;;;;;;;5060929;28;20427;-63
2024/01/21 13:01:22;;;;;;;108.03;100.55;;;;;;;;;;5056810;28;20428;-62
2024/01/21 13:03:52;;;;;;;116.43;109.70;;;;;;;;;;5063697;28;20445;-62
2024/01/21 13:06:20;;;;;;;121.70;115.10;;;;;;;;;;5059551;28;20514;-63
2024/01/21 13:08:48;;;;;;;105.22;99.53;;;;;;;;;;5065477;28;20926;-62
2024/01/21 13:11:16;;;;;;;109.45;103.22;;;;;;;;;;5067460;28;20584;-63
2024/01/21 13:13:43;;;;;;;110.10;102.97;;;;;;;;;;5055416;28;20436;-63
2024/01/21 13:16:10;;;;;;;112.10;105.70;;;;;;;;;;5055520;28;20445;-62
2024/01/21 13:18:38;;;;;;;106.63;100.65;;;;;;;;;;5066176;28;20431;-62
2024/01/21 13:21:07;;;;;;;108.38;102.57;;;;;;;;;;5059738;28;20427;-62
2024/01/21 13:23:35;;;;;;;110.82;104.93;;;;;;;;;;5062994;28;20569;-62
2024/01/21 13:26:02;;;;;;;109.55;102.85;;;;;;;;;;5062454;28;20910;-64
2024/01/21 13:28:38;;;;;;;104.38;98.55;;;;;;;;;;5060939;28;20455;-64
2024/01/21 13:31:07;;;;;;;83.85;78.78;;;;;;;;;;5062028;28;20425;-64
2024/01/21 13:33:34;;;;;;;97.63;92.38;;;;;;;;;;5063363;28;20434;-65
2024/01/21 13:36:02;;;;;;;100.20;94.90;;;;;;;;;;5064117;28;20427;-65
2024/01/21 13:38:31;;;;;;;121.25;114.85;;;;;;;;;;5061658;28;21154;-65
2024/01/21 13:41:01;;;;;;;118.28;110.95;;;;;;;;;;5056467;28;20420;-65
2024/01/21 13:43:29;;;;;;;110.38;104.45;;;;;;;;;;5059951;28;20497;-65
2024/01/21 13:45:56;;;;;;;111.00;105.15;;;;;;;;;;5065408;28;20473;-65
2024/01/21 13:48:23;;;;;;;123.83;117.03;;;;;;;;;;5074165;28;20421;-65
2024/01/21 13:50:50;;;;;;;105.80;100.05;;;;;;;;;;5064867;28;20442;-65
2024/01/21 13:53:18;;;;;;;110.45;104.65;;;;;;;;;;5068351;28;20814;-65
2024/01/21 13:55:45;;;;;;;86.35;81.65;;;;;;;;;;5066413;28;20429;-65
2024/01/21 13:58:16;;;;;;;87.50;82.45;;;;;;;;;;5062449;28;20438;-65
2024/01/21 14:00:44;;;;;;;88.55;83.78;;;;;;;;;;5060047;28;20431;-65
2024/01/21 14:03:12;;;;;;;104.72;99.25;;;;;;;;;;5060920;28;20433;-65
2024/01/21 14:05:41;;;;;;;100.75;95.20;;;;;;;;;;5043102;28;20823;-66
2024/01/21 14:08:10;;;;;;;99.35;93.55;;;;;;;;;;5065955;28;20426;-65